Time;durP1;ratioP1;P1;durP2;ratioP2;P2;SDS_P1;SDS_P2;PMS_P1;PMS_P2;Temp;Humidity;BMP_temperature;BMP_pressure;BME280_temperature;BME280_humidity;BME280_pressure;Samples;Min_cycle;Max_cycle;Signal;HPM_P1;HPM_P2
2022/12/12 06:01:16;;;;;;;36.95;17.73;;;-1.50;99.90;;;;;;5868264;23;20033;31
2022/12/12 06:03:42;;;;;;;33.15;16.90;;;-1.60;99.90;;;;;;4867139;29;20094;-74
2022/12/12 06:06:08;;;;;;;37.95;18.27;;;-1.60;99.90;;;;;;4870273;29;20109;-73
2022/12/12 06:08:33;;;;;;;37.50;17.33;;;-1.60;99.90;;;;;;4870347;29;20322;-73
2022/12/12 06:10:59;;;;;;;39.85;18.55;;;-1.60;99.90;;;;;;4853199;29;20187;-71
2022/12/12 06:13:25;;;;;;;38.25;17.65;;;-1.60;99.90;;;;;;4870254;29;20047;-73
2022/12/12 06:15:50;;;;;;;32.30;16.85;;;-1.60;99.90;;;;;;4869723;29;20101;-73
2022/12/12 06:18:16;;;;;;;34.58;18.08;;;-1.70;99.90;;;;;;4869854;29;20034;-74
2022/12/12 06:20:43;;;;;;;37.80;18.70;;;-1.80;99.90;;;;;;4870074;29;20021;-76
2022/12/12 06:23:08;;;;;;;37.10;18.15;;;-1.80;99.90;;;;;;4853256;29;20061;-76
2022/12/12 06:25:34;;;;;;;39.75;18.58;;;-1.80;99.90;;;;;;4853550;29;20048;-72
2022/12/12 06:28:00;;;;;;;35.78;17.50;;;-1.90;99.90;;;;;;4870359;29;20312;-75
2022/12/12 06:30:29;;;;;;;40.85;19.60;;;-1.90;99.90;;;;;;4853256;29;20268;-73
2022/12/12 06:32:55;;;;;;;34.00;17.55;;;-2.00;99.90;;;;;;4869796;29;20207;-73
2022/12/12 06:35:24;;;;;;;38.78;18.90;;;-1.90;99.90;;;;;;4853229;29;20100;-74
2022/12/12 06:37:50;;;;;;;37.80;18.40;;;-1.80;99.90;;;;;;4854102;29;20037;-74
2022/12/12 06:40:16;;;;;;;41.17;18.52;;;-1.70;99.90;;;;;;4871226;29;20033;-76
2022/12/12 06:42:41;;;;;;;37.35;19.40;;;-1.70;99.90;;;;;;4870006;29;20040;-74
2022/12/12 06:45:07;;;;;;;35.47;18.05;;;-1.70;99.90;;;;;;4869881;29;20041;-75
2022/12/12 06:47:39;;;;;;;37.45;18.27;;;-1.70;99.90;;;;;;4853127;29;20336;-74
2022/12/12 06:50:04;;;;;;;36.15;18.70;;;-1.50;99.90;;;;;;4869525;29;20033;-74
2022/12/12 06:52:30;;;;;;;42.08;19.08;;;-1.50;99.90;;;;;;4868949;29;20038;-74
2022/12/12 06:54:59;;;;;;;41.75;19.50;;;-1.50;99.90;;;;;;4870542;29;20044;-74
2022/12/12 06:57:25;;;;;;;35.72;17.92;;;-1.70;99.90;;;;;;4868649;29;20037;-73
2022/12/12 06:59:51;;;;;;;34.97;18.23;;;-1.80;99.90;;;;;;4869390;29;20029;-73
2022/12/12 07:02:17;;;;;;;37.78;18.83;;;-1.90;99.90;;;;;;4877239;29;20051;-73
2022/12/12 07:04:42;;;;;;;40.30;20.25;;;-1.90;99.90;;;;;;4888183;29;20036;-72
2022/12/12 07:07:14;;;;;;;39.22;19.10;;;-2.00;99.90;;;;;;4887927;29;20310;-72
2022/12/12 07:09:46;;;;;;;36.40;18.75;;;-2.00;99.90;;;;;;4887798;29;20033;-72
2022/12/12 07:12:12;;;;;;;40.13;19.25;;;-2.00;99.90;;;;;;4887626;29;20037;-75
2022/12/12 07:14:39;;;;;;;37.08;17.70;;;-2.00;99.90;;;;;;4887790;29;20048;-74
2022/12/12 07:17:04;;;;;;;37.58;18.98;;;-2.00;99.90;;;;;;4887838;29;20037;-75
2022/12/12 07:19:30;;;;;;;38.97;19.77;;;-2.00;99.90;;;;;;4887287;29;20069;-73
2022/12/12 07:21:56;;;;;;;38.42;18.33;;;-2.00;99.90;;;;;;4887037;29;20232;-73
2022/12/12 07:24:21;;;;;;;40.00;19.80;;;-2.20;99.90;;;;;;4887156;29;20033;-74
2022/12/12 07:26:53;;;;;;;37.55;19.13;;;-2.20;99.90;;;;;;4887409;29;20095;-73
2022/12/12 07:29:19;;;;;;;41.08;20.35;;;-2.20;99.90;;;;;;4887453;29;20337;-73
2022/12/12 07:31:44;;;;;;;37.53;19.30;;;-2.20;99.90;;;;;;4887622;29;20037;-74
2022/12/12 07:34:10;;;;;;;39.03;20.30;;;-2.30;99.90;;;;;;4887005;29;20200;-76
2022/12/12 07:36:36;;;;;;;39.88;19.00;;;-2.30;99.90;;;;;;4887564;29;20314;-77
2022/12/12 07:39:01;;;;;;;43.25;21.00;;;-2.30;99.90;;;;;;4887713;29;20021;-76
2022/12/12 07:41:27;;;;;;;39.53;18.67;;;-2.30;99.90;;;;;;4887269;29;20082;-77
2022/12/12 07:43:53;;;;;;;42.85;20.15;;;-2.30;99.90;;;;;;4887482;29;20025;-77
2022/12/12 07:46:24;;;;;;;42.28;21.65;;;-2.20;99.90;;;;;;4887329;29;20040;-78
2022/12/12 07:48:50;;;;;;;40.03;19.55;;;-2.20;99.90;;;;;;4887350;29;20025;-76
2022/12/12 07:51:17;;;;;;;39.45;19.38;;;-2.20;99.90;;;;;;4887256;29;20045;-74
2022/12/12 07:53:43;;;;;;;38.92;18.98;;;-2.10;99.90;;;;;;4887129;29;20054;-74
2022/12/12 07:56:20;;;;;;;38.90;18.73;;;-2.10;99.90;;;;;;4871150;29;20049;-76
2022/12/12 07:58:46;;;;;;;40.75;19.13;;;-2.10;99.90;;;;;;4837491;29;20037;-74
2022/12/12 08:01:22;;;;;;;38.78;19.33;;;-2.00;99.90;;;;;;4868493;29;20108;-74
2022/12/12 08:03:48;;;;;;;43.80;20.55;;;-1.90;99.90;;;;;;4883961;29;20032;-76
2022/12/12 08:06:16;;;;;;;41.78;20.80;;;-1.80;99.90;;;;;;4887333;29;20032;-74
2022/12/12 08:08:46;;;;;;;40.28;19.95;;;-1.80;99.90;;;;;;4887829;29;20040;-76
2022/12/12 08:11:14;;;;;;;41.28;19.38;;;-1.80;99.90;;;;;;4886125;29;20060;-74
2022/12/12 08:13:41;;;;;;;40.00;18.88;;;-1.70;99.90;;;;;;4885944;29;20043;-75
2022/12/12 08:16:16;;;;;;;38.97;18.90;;;-1.60;99.90;;;;;;4879986;29;20084;-79
2022/12/12 08:18:43;;;;;;;40.90;20.40;;;-1.60;99.90;;;;;;4869154;29;20025;-73
2022/12/12 08:21:13;;;;;;;39.97;19.38;;;-1.60;99.90;;;;;;4861562;29;20108;-76
2022/12/12 08:23:40;;;;;;;34.60;17.52;;;-1.60;99.90;;;;;;4871018;29;20306;-77
2022/12/12 08:26:12;;;;;;;35.53;18.85;;;-1.40;99.90;;;;;;4887317;29;20033;-74
2022/12/12 08:28:40;;;;;;;37.08;18.95;;;-1.30;99.90;;;;;;4871175;29;20029;-74
2022/12/12 08:31:07;;;;;;;39.92;18.95;;;-1.20;99.90;;;;;;4887652;29;20045;-75
2022/12/12 08:33:33;;;;;;;40.25;20.13;;;-1.20;99.90;;;;;;4875917;29;20042;-75
2022/12/12 08:35:59;;;;;;;41.05;19.05;;;-1.20;99.90;;;;;;4840635;29;20351;-74
2022/12/12 08:38:25;;;;;;;38.17;18.20;;;-1.10;99.90;;;;;;4855356;29;20037;-76
2022/12/12 08:40:51;;;;;;;35.97;17.55;;;-1.00;99.90;;;;;;4872298;29;20081;-76
2022/12/12 08:43:17;;;;;;;35.78;18.13;;;-0.80;99.90;;;;;;4871917;29;20310;-76
2022/12/12 08:45:44;;;;;;;39.25;17.50;;;-0.80;99.90;;;;;;4883162;29;20033;-76
2022/12/12 08:48:12;;;;;;;38.78;17.45;;;-0.70;99.90;;;;;;4872180;29;20036;-76
2022/12/12 08:50:39;;;;;;;33.13;17.58;;;-0.70;99.90;;;;;;4882482;29;20033;-75
2022/12/12 08:53:05;;;;;;;34.45;16.83;;;-0.80;99.90;;;;;;4890350;29;20106;-76
2022/12/12 08:55:31;;;;;;;34.03;18.48;;;-0.70;99.90;;;;;;4873577;29;20311;-76
2022/12/12 08:57:57;;;;;;;36.08;18.15;;;-0.70;99.90;;;;;;4873906;29;20036;-76
2022/12/12 09:00:22;;;;;;;33.47;16.52;;;-0.70;99.90;;;;;;4890449;29;20338;-76
2022/12/12 09:02:51;;;;;;;33.17;18.27;;;-0.70;99.90;;;;;;4890144;29;20255;-76
2022/12/12 09:05:17;;;;;;;34.30;16.75;;;-0.80;99.90;;;;;;4890216;29;20255;-76
2022/12/12 09:07:43;;;;;;;35.17;17.63;;;-0.80;99.90;;;;;;4874159;29;20037;-74
2022/12/12 09:10:11;;;;;;;37.08;18.33;;;-0.70;99.90;;;;;;4890448;29;20052;-73
2022/12/12 09:12:43;;;;;;;37.63;18.33;;;-0.60;99.90;;;;;;4889938;29;20180;-74
2022/12/12 09:15:09;;;;;;;34.58;17.85;;;-0.50;99.90;;;;;;4873755;29;20039;-75
2022/12/12 09:17:35;;;;;;;37.42;18.73;;;-0.40;99.90;;;;;;4889640;29;20033;-74
2022/12/12 09:20:01;;;;;;;37.72;18.55;;;-0.20;99.90;;;;;;4890324;29;20075;-74
2022/12/12 09:22:27;;;;;;;35.08;17.33;;;-0.10;99.90;;;;;;4889705;29;20040;-74
2022/12/12 09:24:53;;;;;;;30.98;16.23;;;0.10;99.90;;;;;;4890282;29;20251;-74
2022/12/12 09:27:19;;;;;;;31.20;16.42;;;0.10;99.90;;;;;;4889566;29;20029;-74
2022/12/12 09:29:45;;;;;;;36.58;17.35;;;0.20;99.90;;;;;;4890077;29;20160;-76
2022/12/12 09:32:10;;;;;;;32.28;16.90;;;0.10;99.90;;;;;;4890051;29;20059;-74
2022/12/12 09:34:37;;;;;;;34.00;16.98;;;0.10;99.90;;;;;;4875408;29;20044;-73
2022/12/12 09:37:04;;;;;;;32.17;17.42;;;0.10;99.90;;;;;;4871433;29;20060;-73
2022/12/12 09:39:29;;;;;;;33.05;16.52;;;0.10;99.90;;;;;;4871138;29;20057;-73
2022/12/12 09:41:55;;;;;;;31.73;16.65;;;0.10;99.90;;;;;;4871376;29;20128;-75
2022/12/12 09:44:24;;;;;;;32.22;16.80;;;0.10;99.90;;;;;;4870886;29;20045;-78
2022/12/12 09:47:03;;;;;;;32.55;17.33;;;0.20;99.90;;;;;;4870633;29;20038;-75
2022/12/12 09:49:50;;;;;;;35.00;16.77;;;0.40;99.90;;;;;;4873066;29;20029;-75
2022/12/12 09:52:36;;;;;;;30.88;17.23;;;0.60;99.90;;;;;;4880635;29;20093;-75
2022/12/12 09:55:25;;;;;;;33.55;17.48;;;0.70;99.90;;;;;;4877156;29;20096;-75
2022/12/12 09:58:21;;;;;;;33.08;16.10;;;0.80;99.90;;;;;;4874997;29;20055;-77
2022/12/12 10:01:01;;;;;;;31.75;15.43;;;0.90;99.90;;;;;;4876756;29;20036;-76
2022/12/12 10:03:36;;;;;;;33.03;16.08;;;1.10;99.90;;;;;;4889571;29;20108;-73
2022/12/12 10:06:05;;;;;;;36.42;16.38;;;1.30;99.90;;;;;;4872690;29;20196;-73
2022/12/12 10:09:05;;;;;;;34.17;17.10;;;1.30;99.90;;;;;;4888832;29;20234;-78
2022/12/12 10:11:50;;;;;;;32.33;15.75;;;1.30;99.90;;;;;;4872160;29;20059;-75
2022/12/12 10:14:42;;;;;;;29.98;15.48;;;1.30;99.90;;;;;;4888746;29;20032;-74
2022/12/12 10:17:19;;;;;;;31.30;14.88;;;1.50;99.90;;;;;;4872418;29;20298;-73
2022/12/12 10:19:53;;;;;;;33.42;15.55;;;1.70;99.90;;;;;;4889350;29;20021;-74
2022/12/12 10:22:29;;;;;;;27.63;14.30;;;1.80;99.90;;;;;;4888681;29;20029;-74
2022/12/12 10:25:26;;;;;;;28.25;14.77;;;1.80;99.90;;;;;;4872030;29;20314;-73
2022/12/12 10:28:00;;;;;;;28.33;14.87;;;1.90;99.90;;;;;;4873972;29;20049;-72
2022/12/12 10:30:29;;;;;;;28.52;15.60;;;1.90;99.90;;;;;;4888478;29;20448;-74
2022/12/12 10:33:32;;;;;;;24.83;14.40;;;2.00;99.90;;;;;;4888555;29;20040;-73
2022/12/12 10:36:52;;;;;;;25.88;13.48;;;2.00;99.90;;;;;;4872123;29;20161;-74
2022/12/12 10:39:30;;;;;;;24.23;13.27;;;2.10;99.90;;;;;;4867495;29;20103;-73
2022/12/12 10:41:59;;;;;;;25.63;14.60;;;1.90;99.90;;;;;;4886112;29;20322;-73
2022/12/12 10:44:41;;;;;;;27.88;14.00;;;1.90;99.90;;;;;;4888078;29;20028;-73
2022/12/12 10:47:10;;;;;;;27.40;14.98;;;2.00;99.90;;;;;;4888410;29;20032;-73
2022/12/12 10:49:36;;;;;;;29.77;14.55;;;2.20;99.90;;;;;;4888166;29;20100;-73
2022/12/12 10:52:06;;;;;;;30.17;14.15;;;2.70;99.90;;;;;;4888436;29;20077;-72
2022/12/12 10:54:42;;;;;;;26.55;14.82;;;3.10;99.90;;;;;;4887871;29;20060;-71
2022/12/12 10:57:19;;;;;;;24.02;14.43;;;3.60;99.90;;;;;;4888458;29;20356;-72
2022/12/12 10:59:48;;;;;;;24.25;13.77;;;4.00;99.90;;;;;;4888358;29;20048;-74
2022/12/12 11:02:38;;;;;;;21.77;14.02;;;4.60;99.20;;;;;;4871525;29;20235;-73
2022/12/12 11:05:04;;;;;;;24.80;14.55;;;5.10;97.50;;;;;;4888379;29;20077;-72
2022/12/12 11:07:50;;;;;;;24.95;13.85;;;5.20;95.70;;;;;;4888273;29;20241;-72
2022/12/12 11:10:31;;;;;;;20.67;13.43;;;5.50;95.70;;;;;;4887548;29;20204;-72
2022/12/12 11:13:09;;;;;;;21.10;13.10;;;5.70;94.80;;;;;;4888612;29;20062;-72
2022/12/12 11:15:40;;;;;;;21.65;13.55;;;6.30;93.60;;;;;;4871436;29;20041;-70
2022/12/12 11:18:12;;;;;;;18.40;12.95;;;6.60;92.70;;;;;;4888269;29;20063;-72
2022/12/12 11:21:06;;;;;;;19.70;12.80;;;6.80;91.60;;;;;;4870869;29;20251;-70
2022/12/12 11:23:33;;;;;;;18.98;12.43;;;7.00;90.80;;;;;;4881965;29;20109;-73
2022/12/12 11:26:06;;;;;;;19.03;13.00;;;7.00;91.10;;;;;;4888173;29;20029;-73
2022/12/12 11:28:35;;;;;;;19.55;13.07;;;8.10;90.30;;;;;;4887573;29;20104;-73
2022/12/12 11:31:18;;;;;;;19.48;13.40;;;9.00;87.70;;;;;;4887998;29;20101;-72
2022/12/12 11:33:48;;;;;;;17.30;12.35;;;9.00;84.80;;;;;;4888114;29;20096;-73
2022/12/12 11:36:21;;;;;;;18.98;13.45;;;9.20;84.60;;;;;;4888024;29;20036;-72
2022/12/12 11:38:50;;;;;;;18.33;13.02;;;9.20;83.50;;;;;;4888310;29;20035;-72
2022/12/12 11:41:16;;;;;;;21.02;14.07;;;9.70;81.90;;;;;;4887842;29;20056;-75
2022/12/12 11:43:47;;;;;;;17.80;13.00;;;9.40;80.80;;;;;;4887770;29;20043;-74
2022/12/12 11:46:13;;;;;;;19.63;13.05;;;9.90;81.60;;;;;;4886659;29;20096;-74
2022/12/12 11:48:51;;;;;;;17.95;12.85;;;9.90;80.40;;;;;;4886513;29;20327;-73
2022/12/12 11:51:34;;;;;;;18.13;12.68;;;10.50;79.00;;;;;;4887988;29;20036;-73
2022/12/12 11:54:02;;;;;;;18.45;11.90;;;10.60;78.20;;;;;;4887678;29;20219;-73
2022/12/12 11:56:51;;;;;;;18.02;12.63;;;10.70;77.50;;;;;;4887600;29;20041;-72
2022/12/12 11:59:36;;;;;;;18.45;12.95;;;11.10;76.50;;;;;;4887569;29;20101;-73
2022/12/12 12:02:23;;;;;;;20.38;13.45;;;10.50;76.80;;;;;;4887712;29;20059;-71
2022/12/12 12:05:26;;;;;;;21.13;12.90;;;9.40;77.80;;;;;;4888077;29;20089;-73
2022/12/12 12:08:18;;;;;;;19.13;12.65;;;8.10;81.10;;;;;;4871226;29;20093;-75
2022/12/12 12:11:09;;;;;;;20.08;12.23;;;6.90;84.80;;;;;;4891424;29;20271;-74
2022/12/12 12:14:00;;;;;;;19.83;12.90;;;6.20;86.20;;;;;;4890951;29;20243;-75
2022/12/12 12:17:06;;;;;;;19.15;12.48;;;6.40;88.10;;;;;;4883018;29;20060;-74
2022/12/12 12:19:42;;;;;;;19.80;11.85;;;7.70;85.20;;;;;;4859415;29;20108;-74
2022/12/12 12:22:14;;;;;;;44.88;30.00;;;9.60;82.80;;;;;;4891378;29;20040;-74
2022/12/12 12:24:56;;;;;;;30.73;20.73;;;10.30;79.90;;;;;;4890911;29;20056;-72
2022/12/12 12:27:47;;;;;;;22.23;14.15;;;10.70;77.90;;;;;;4890770;29;20219;-73
2022/12/12 12:30:23;;;;;;;17.30;11.50;;;11.40;75.70;;;;;;4891144;29;20033;-72
2022/12/12 12:33:10;;;;;;;20.80;12.35;;;10.60;73.60;;;;;;4890619;29;20096;-72
2022/12/12 12:35:56;;;;;;;20.75;12.45;;;9.30;75.90;;;;;;4890970;29;20112;-79
2022/12/12 12:38:44;;;;;;;18.63;11.63;;;8.50;78.10;;;;;;4890587;29;20243;-74
2022/12/12 12:41:44;;;;;;;17.88;11.13;;;9.30;78.10;;;;;;4891217;29;20041;-77
2022/12/12 12:44:35;;;;;;;18.05;11.63;;;9.10;77.00;;;;;;4890488;29;20052;-77
2022/12/12 12:47:13;;;;;;;16.75;11.20;;;8.20;77.80;;;;;;4890948;29;20060;-78
2022/12/12 12:50:04;;;;;;;20.17;12.38;;;7.40;80.60;;;;;;4874236;29;20044;-77
2022/12/12 12:52:42;;;;;;;22.55;11.75;;;7.60;82.00;;;;;;4889448;29;20155;-75
2022/12/12 12:55:16;;;;;;;18.15;10.57;;;7.30;81.20;;;;;;4884204;29;20033;-75
2022/12/12 12:57:45;;;;;;;18.92;10.85;;;6.70;83.50;;;;;;4882339;29;20337;-75
2022/12/12 13:00:15;;;;;;;21.10;10.13;;;5.80;83.20;;;;;;4876454;29;20045;-76
2022/12/12 13:02:56;;;;;;;16.67;9.93;;;5.30;86.50;;;;;;4870977;29;20053;-76
2022/12/12 13:05:38;;;;;;;18.60;10.15;;;5.00;88.90;;;;;;4889961;29;20104;-79
2022/12/12 13:08:14;;;;;;;18.63;10.63;;;4.70;89.00;;;;;;4890698;29;20045;-75
2022/12/12 13:10:48;;;;;;;26.83;12.75;;;4.20;90.00;;;;;;4890023;29;20033;-74
2022/12/12 13:13:33;;;;;;;26.42;11.60;;;3.90;91.10;;;;;;4879131;29;20029;-75
2022/12/12 13:16:21;;;;;;;19.90;11.57;;;3.50;91.30;;;;;;4877149;29;20222;-75
2022/12/12 13:18:49;;;;;;;;;;;3.30;92.00;;;;;;4883754;29;20251;-75
2022/12/12 13:21:34;;;;;;;25.15;12.27;;;3.00;92.60;;;;;;4888316;29;19948;-76
2022/12/12 13:24:05;;;;;;;23.83;12.25;;;2.80;93.20;;;;;;4889717;29;20112;-77
2022/12/12 13:27:02;;;;;;;25.85;12.88;;;2.50;94.00;;;;;;4872700;29;20033;-77
2022/12/12 13:29:33;;;;;;;25.70;13.70;;;2.40;94.30;;;;;;4883369;29;20056;-77
2022/12/12 13:32:24;;;;;;;25.13;14.07;;;2.20;94.70;;;;;;4873340;29;20033;-77
2022/12/12 13:34:55;;;;;;;25.88;14.05;;;2.10;95.10;;;;;;4889779;29;20041;-77
2022/12/12 13:37:22;;;;;;;27.55;14.70;;;1.90;95.40;;;;;;4873023;29;20033;-77
2022/12/12 13:40:03;;;;;;;24.52;12.98;;;1.80;95.50;;;;;;4889767;29;20095;-77
2022/12/12 13:42:55;;;;;;;26.15;14.02;;;1.70;95.90;;;;;;4889267;29;20315;-77
2022/12/12 13:45:39;;;;;;;28.30;14.15;;;1.60;96.20;;;;;;4889626;29;20048;-76
2022/12/12 13:48:19;;;;;;;25.55;12.70;;;1.50;96.40;;;;;;4889586;29;20100;-77
2022/12/12 13:50:46;;;;;;;24.08;13.38;;;1.50;96.70;;;;;;4889287;29;20036;-77
2022/12/12 13:53:17;;;;;;;24.13;13.73;;;1.40;96.90;;;;;;4889561;29;20056;-75
2022/12/12 13:55:43;;;;;;;27.13;14.20;;;1.40;97.10;;;;;;4889156;29;20085;-75
2022/12/12 13:58:16;;;;;;;26.48;13.85;;;1.40;97.30;;;;;;4889482;29;20036;-75
2022/12/12 14:00:42;;;;;;;26.83;14.18;;;1.30;97.30;;;;;;4889280;29;20108;-74
2022/12/12 14:03:08;;;;;;;28.25;14.00;;;1.30;97.60;;;;;;4888861;29;20036;-75
2022/12/12 14:05:40;;;;;;;26.55;14.35;;;1.20;97.70;;;;;;4887983;29;20065;-75
2022/12/12 14:08:14;;;;;;;29.23;14.45;;;1.20;98.00;;;;;;4889446;29;20044;-75
2022/12/12 14:10:51;;;;;;;25.42;14.05;;;1.10;98.70;;;;;;4872689;29;20033;-75
2022/12/12 14:13:22;;;;;;;29.92;14.18;;;1.10;98.80;;;;;;4889424;29;20052;-73
2022/12/12 14:15:57;;;;;;;28.40;14.18;;;1.00;98.70;;;;;;4889547;29;20037;-75
2022/12/12 14:18:27;;;;;;;26.65;14.15;;;1.00;98.80;;;;;;4856727;29;20240;-76
2022/12/12 14:21:03;;;;;;;29.02;13.73;;;1.00;99.30;;;;;;4889491;29;20047;-75
2022/12/12 14:23:39;;;;;;;29.05;15.55;;;0.90;99.40;;;;;;4888956;29;20039;-75
2022/12/12 14:26:27;;;;;;;32.03;16.05;;;1.00;99.40;;;;;;4889015;29;20297;-76
2022/12/12 14:29:15;;;;;;;29.70;15.20;;;0.90;99.50;;;;;;4889240;29;20073;-75
2022/12/12 14:32:33;;;;;;;29.60;14.88;;;0.90;99.80;;;;;;4888474;29;20037;-75
2022/12/12 14:35:32;;;;;;;31.27;16.00;;;0.80;99.90;;;;;;4872950;29;20049;-76
2022/12/12 14:38:22;;;;;;;32.38;15.82;;;0.80;99.90;;;;;;4889321;29;20052;-75
2022/12/12 14:40:52;;;;;;;28.15;14.77;;;0.80;99.90;;;;;;4889113;29;20379;-75
2022/12/12 14:43:26;;;;;;;28.95;13.98;;;0.80;99.90;;;;;;4888912;29;20334;-76
2022/12/12 14:45:58;;;;;;;29.05;14.55;;;0.80;99.90;;;;;;4888669;29;20029;-75
2022/12/12 14:49:03;;;;;;;26.40;14.35;;;0.80;99.90;;;;;;4888694;29;20124;-76
2022/12/12 14:51:33;;;;;;;26.38;14.30;;;0.80;99.90;;;;;;4888354;29;20057;-75
2022/12/12 14:54:01;;;;;;;32.72;14.68;;;0.80;99.90;;;;;;4888750;29;20041;-75
2022/12/12 14:56:42;;;;;;;30.65;17.20;;;0.90;99.90;;;;;;4888208;29;20250;-76
2022/12/12 14:59:31;;;;;;;29.58;15.43;;;0.80;99.90;;;;;;4888707;29;20045;-76
2022/12/12 15:02:20;;;;;;;29.90;15.93;;;0.80;99.90;;;;;;4888111;29;20057;-76
2022/12/12 15:04:51;;;;;;;30.80;15.75;;;0.70;99.90;;;;;;4871507;29;20077;-75
2022/12/12 15:07:32;;;;;;;29.38;14.77;;;0.70;99.90;;;;;;4888732;29;20100;-75
2022/12/12 15:09:58;;;;;;;29.42;15.55;;;0.60;99.90;;;;;;4887985;29;20033;-77
2022/12/12 15:12:26;;;;;;;30.27;14.63;;;0.40;99.90;;;;;;4888204;29;20044;-76
2022/12/12 15:14:53;;;;;;;;;;;0.40;99.90;;;;;;4888643;29;20051;-76
2022/12/12 15:17:24;;;;;;;25.67;14.30;;;0.20;99.90;;;;;;4888378;29;19903;-76
2022/12/12 15:20:05;;;;;;;27.17;14.80;;;0.10;99.90;;;;;;4872048;29;20041;-76
2022/12/12 15:22:37;;;;;;;27.15;14.93;;;0.00;99.90;;;;;;4871399;29;20184;-76
2022/12/12 15:25:27;;;;;;;27.08;13.98;;;-0.10;99.90;;;;;;4891931;29;20035;-75
2022/12/12 15:27:54;;;;;;;29.35;14.57;;;-0.20;99.90;;;;;;4893953;29;20029;-77
2022/12/12 15:30:28;;;;;;;25.10;12.90;;;-0.30;99.90;;;;;;4861706;29;20107;-76
2022/12/12 15:32:54;;;;;;;24.77;13.63;;;-0.30;99.90;;;;;;4894684;29;20337;-75
2022/12/12 15:35:22;;;;;;;26.92;14.30;;;-0.40;99.90;;;;;;4892276;29;20061;-76
2022/12/12 15:38:04;;;;;;;29.98;13.90;;;-0.50;99.90;;;;;;4887960;29;20033;-76
2022/12/12 15:40:38;;;;;;;26.13;13.30;;;-0.60;99.90;;;;;;4888491;29;20029;-76
2022/12/12 15:43:29;;;;;;;27.45;13.88;;;-0.60;99.90;;;;;;4871634;29;20037;-75
2022/12/12 15:46:15;;;;;;;27.67;13.93;;;-0.60;99.90;;;;;;4888357;29;20033;-76
2022/12/12 15:48:51;;;;;;;25.73;13.32;;;-0.70;99.90;;;;;;4887454;29;20058;-77
2022/12/12 15:51:18;;;;;;;24.52;13.45;;;-0.70;99.90;;;;;;4864765;29;20625;-77
2022/12/12 15:53:52;;;;;;;28.48;13.73;;;-0.80;99.90;;;;;;4885889;29;20101;-76
2022/12/12 15:56:18;;;;;;;27.30;14.60;;;-0.80;99.90;;;;;;4873936;29;20240;-75
2022/12/12 15:59:09;;;;;;;32.25;15.18;;;-0.90;99.90;;;;;;4881613;29;20033;-74
2022/12/12 16:01:34;;;;;;;29.77;14.82;;;-0.90;99.90;;;;;;4857278;29;20033;-75
2022/12/12 16:04:05;;;;;;;32.15;16.02;;;-1.00;99.90;;;;;;4836788;29;20049;-74
2022/12/12 16:06:33;;;;;;;29.45;15.43;;;-1.00;99.90;;;;;;4883041;29;20037;-74
2022/12/12 16:09:06;;;;;;;31.40;14.93;;;-1.10;99.90;;;;;;4886786;29;20068;-75
2022/12/12 16:11:38;;;;;;;37.03;17.30;;;-1.10;99.90;;;;;;4886850;29;20029;-74
2022/12/12 16:14:21;;;;;;;32.17;16.13;;;-1.10;99.90;;;;;;4887210;29;20068;-75
2022/12/12 16:16:51;;;;;;;34.20;16.52;;;-1.20;99.90;;;;;;4870621;29;20052;-75
2022/12/12 16:19:25;;;;;;;33.22;17.65;;;-1.30;99.90;;;;;;4887789;29;20040;-74
2022/12/12 16:21:52;;;;;;;29.75;16.40;;;-1.30;99.90;;;;;;4886173;29;20064;-75
2022/12/12 16:24:24;;;;;;;37.90;16.15;;;-1.30;99.90;;;;;;4886745;29;20055;-74
2022/12/12 16:26:51;;;;;;;33.00;15.50;;;-1.30;99.90;;;;;;4868070;29;20033;-75
2022/12/12 16:29:17;;;;;;;30.08;14.75;;;-1.30;99.90;;;;;;4868194;29;20264;-75
2022/12/12 16:31:44;;;;;;;27.23;14.20;;;-1.30;99.90;;;;;;4867578;29;20041;-73
2022/12/12 16:34:10;;;;;;;33.85;15.30;;;-1.30;99.90;;;;;;4867587;29;20090;-73
2022/12/12 16:36:35;;;;;;;29.10;15.02;;;-1.40;99.90;;;;;;4867245;29;20286;-73
2022/12/12 16:39:01;;;;;;;33.97;17.17;;;-1.40;99.90;;;;;;4868091;29;20068;-74
2022/12/12 16:41:27;;;;;;;32.72;17.75;;;-1.50;99.90;;;;;;4868049;29;20215;-73
2022/12/12 16:43:53;;;;;;;30.42;16.02;;;-1.50;99.90;;;;;;4867509;29;20044;-76
2022/12/12 16:46:23;;;;;;;29.42;16.83;;;-1.50;99.90;;;;;;4851407;29;20320;-75
2022/12/12 16:48:50;;;;;;;28.92;16.05;;;-1.50;99.90;;;;;;4867251;29;20041;-75
2022/12/12 16:51:38;;;;;;;32.95;16.40;;;-1.50;99.90;;;;;;4873663;29;20337;-76
2022/12/12 16:54:04;;;;;;;30.92;15.40;;;-1.60;99.90;;;;;;4886494;29;20048;-75
2022/12/12 16:56:30;;;;;;;26.73;14.43;;;-1.50;99.90;;;;;;4889522;29;20028;-75
2022/12/12 16:58:56;;;;;;;25.95;14.30;;;-1.40;99.90;;;;;;4888437;29;20350;-74
2022/12/12 17:01:22;;;;;;;28.00;14.73;;;-1.40;99.90;;;;;;4887648;29;20037;-76
2022/12/12 17:03:48;;;;;;;25.80;13.23;;;-1.40;99.90;;;;;;4888815;29;20145;-76
2022/12/12 17:06:15;;;;;;;27.92;14.40;;;-1.40;99.90;;;;;;4889388;29;20057;-75
2022/12/12 17:08:41;;;;;;;22.67;12.82;;;-1.30;99.90;;;;;;4888600;29;20028;-76
2022/12/12 17:11:07;;;;;;;25.50;13.55;;;-1.30;99.90;;;;;;4872702;29;20120;-77
2022/12/12 17:13:33;;;;;;;26.92;14.80;;;-1.40;99.90;;;;;;4871667;29;20059;-76
2022/12/12 17:15:59;;;;;;;27.30;13.70;;;-1.40;99.90;;;;;;4889483;29;20033;-76
2022/12/12 17:18:26;;;;;;;24.33;12.88;;;-1.50;99.90;;;;;;4872271;29;20120;-75
2022/12/12 17:20:53;;;;;;;26.30;13.55;;;-1.50;99.90;;;;;;4888901;29;20032;-75
2022/12/12 17:23:21;;;;;;;28.67;13.40;;;-1.50;99.90;;;;;;4889140;29;20067;-76
2022/12/12 17:25:56;;;;;;;28.13;13.90;;;-1.60;99.90;;;;;;4888561;29;20036;-77
2022/12/12 17:28:22;;;;;;;26.73;13.93;;;-1.60;99.90;;;;;;4872326;29;20056;-75
2022/12/12 17:30:49;;;;;;;27.77;14.68;;;-1.50;99.90;;;;;;4888712;29;20036;-76
2022/12/12 17:33:16;;;;;;;27.45;14.30;;;-1.60;99.90;;;;;;4871894;29;20052;-76
2022/12/12 17:35:43;;;;;;;30.30;14.88;;;-1.60;99.90;;;;;;4888715;29;20089;-76
2022/12/12 17:38:09;;;;;;;30.80;14.82;;;-1.70;99.90;;;;;;4872599;29;20033;-78
2022/12/12 17:40:39;;;;;;;25.48;13.95;;;-1.60;99.90;;;;;;4855475;29;20166;-78
2022/12/12 17:43:08;;;;;;;25.63;14.30;;;-1.70;99.90;;;;;;4856682;29;20035;-77
2022/12/12 17:45:55;;;;;;;27.50;14.18;;;-1.80;99.90;;;;;;4853977;29;20033;-80
2022/12/12 17:48:23;;;;;;;30.10;15.55;;;-1.80;99.90;;;;;;4869141;29;20038;-77
2022/12/12 17:54:26;;;;;;;26.30;14.00;;;-1.70;99.90;;;;;;4888780;29;20033;-78
2022/12/12 17:57:01;;;;;;;28.95;14.60;;;-1.70;99.90;;;;;;4856789;29;20033;-80
2022/12/12 17:59:27;;;;;;;25.25;14.43;;;-1.70;99.90;;;;;;4853745;29;20200;-79
2022/12/12 18:01:58;;;;;;;28.45;13.93;;;-1.70;99.90;;;;;;4869728;29;20276;-79
2022/12/12 18:04:25;;;;;;;24.77;14.02;;;-1.70;99.90;;;;;;4853858;29;20037;-80
2022/12/12 18:07:15;;;;;;;25.90;14.10;;;-1.70;99.90;;;;;;4873380;29;20033;-79
2022/12/12 18:09:44;;;;;;;24.80;13.45;;;-1.70;99.90;;;;;;4871424;29;20275;-79
2022/12/12 18:12:11;;;;;;;29.77;13.98;;;-1.70;99.90;;;;;;4857830;29;20173;-77
2022/12/12 18:14:37;;;;;;;26.58;12.23;;;-1.70;99.90;;;;;;4871055;29;20029;-75
2022/12/12 18:17:04;;;;;;;24.05;13.02;;;-1.60;99.90;;;;;;4888088;29;20036;-74
2022/12/12 18:19:29;;;;;;;24.95;12.95;;;-1.70;99.90;;;;;;4888137;29;20049;-72
2022/12/12 18:21:55;;;;;;;27.15;14.23;;;-1.70;99.90;;;;;;4887410;29;20080;-76
2022/12/12 18:24:23;;;;;;;30.95;15.82;;;-1.80;99.90;;;;;;4887819;29;20038;-74
2022/12/12 18:26:54;;;;;;;;;;;-1.80;99.90;;;;;;4888182;29;20072;-75
2022/12/12 18:29:22;;;;;;;25.73;14.25;;;-1.80;99.90;;;;;;4887944;29;19914;-75
2022/12/12 18:31:48;;;;;;;28.35;14.00;;;-1.80;99.90;;;;;;4870974;29;20037;-74
2022/12/12 18:34:14;;;;;;;28.50;15.10;;;-1.90;99.90;;;;;;4871120;29;20334;-76
2022/12/12 18:36:40;;;;;;;26.20;14.55;;;-2.00;99.90;;;;;;4887252;29;20041;-74
2022/12/12 18:39:06;;;;;;;28.50;15.05;;;-2.00;99.90;;;;;;4871325;29;20037;-75
2022/12/12 18:41:35;;;;;;;24.20;13.80;;;-2.10;99.90;;;;;;4887899;29;20033;-74
2022/12/12 18:44:06;;;;;;;26.55;14.27;;;-2.10;99.90;;;;;;4855739;29;20029;-76
2022/12/12 18:46:34;;;;;;;31.52;15.30;;;-2.20;99.90;;;;;;4870849;29;20035;-76
2022/12/12 18:48:59;;;;;;;34.17;15.88;;;-2.20;99.90;;;;;;4870701;29;20092;-76
2022/12/12 18:51:26;;;;;;;34.72;15.65;;;-2.20;99.90;;;;;;4870935;29;20040;-74
2022/12/12 18:53:58;;;;;;;42.55;15.80;;;-2.20;99.90;;;;;;4887100;29;20037;-76
2022/12/12 18:56:26;;;;;;;169.85;43.28;;;-2.30;99.90;;;;;;4887846;29;20040;-75
2022/12/12 18:58:56;;;;;;;;;;;-2.30;99.90;;;;;;4887176;29;20367;-74
2022/12/12 19:01:27;;;;;;;66.55;23.48;;;-2.30;99.90;;;;;;4870888;29;19908;-75
2022/12/12 19:03:55;;;;;;;47.08;18.67;;;-2.40;99.90;;;;;;4870590;29;20032;-76
2022/12/12 19:06:32;;;;;;;42.15;19.23;;;-2.40;99.90;;;;;;4887531;29;20056;-75